Time;durP1;ratioP1;P1;durP2;ratioP2;P2;SDS_P1;SDS_P2;PMS_P1;PMS_P2;Temp;Humidity;BMP_temperature;BMP_pressure;BME280_temperature;BME280_humidity;BME280_pressure;Samples;Min_cycle;Max_cycle;Signal;HPM_P1;HPM_P2
2023/01/24 00:01:31;;;;;;;38.17;27.48;;;3.70;99.90;;;;;;5032155;28;20037;-73
2023/01/24 00:03:57;;;;;;;39.17;27.52;;;3.70;99.90;;;;;;5031061;28;20480;-73
2023/01/24 00:06:22;;;;;;;40.97;27.65;;;3.70;99.90;;;;;;5029411;28;20048;-74
2023/01/24 00:08:48;;;;;;;36.55;27.38;;;3.80;99.90;;;;;;5046109;28;20061;-74
2023/01/24 00:11:14;;;;;;;39.90;27.75;;;3.80;99.90;;;;;;5046478;28;20112;-73
2023/01/24 00:13:40;;;;;;;38.30;27.48;;;3.70;99.90;;;;;;5037554;28;20435;-73
2023/01/24 00:16:10;;;;;;;37.70;26.92;;;3.80;99.90;;;;;;5031159;28;20056;-72
2023/01/24 00:18:35;;;;;;;42.85;27.98;;;3.70;99.90;;;;;;5049452;28;20519;-73
2023/01/24 00:21:12;;;;;;;36.17;28.50;;;3.70;99.90;;;;;;5046921;28;20069;-73
2023/01/24 00:23:47;;;;;;;37.47;27.45;;;3.70;99.90;;;;;;5044554;28;20045;-74
2023/01/24 00:26:14;;;;;;;38.35;26.63;;;3.70;99.90;;;;;;5036654;28;20124;-74
2023/01/24 00:28:39;;;;;;;38.17;26.58;;;3.70;99.90;;;;;;5042820;28;21628;-73
2023/01/24 00:31:05;;;;;;;41.13;27.73;;;3.70;99.90;;;;;;5034362;28;20067;-74
2023/01/24 00:33:32;;;;;;;39.67;28.13;;;3.70;99.90;;;;;;5047013;28;20056;-74
2023/01/24 00:35:58;;;;;;;40.45;27.90;;;3.70;99.90;;;;;;5050183;28;20045;-74
2023/01/24 00:38:24;;;;;;;44.15;29.75;;;3.80;99.90;;;;;;5045998;28;20470;-74
2023/01/24 00:40:50;;;;;;;40.58;27.65;;;3.80;99.90;;;;;;5048210;28;20392;-74
2023/01/24 00:43:16;;;;;;;38.20;27.30;;;3.70;99.90;;;;;;5045572;28;20102;-74
2023/01/24 00:45:44;;;;;;;43.38;26.90;;;3.70;99.90;;;;;;5044743;28;20127;-73
2023/01/24 00:48:10;;;;;;;39.42;27.20;;;3.70;99.90;;;;;;5043106;28;20136;-73
2023/01/24 00:50:36;;;;;;;39.22;27.08;;;3.70;99.90;;;;;;5043468;28;20076;-74
2023/01/24 00:53:03;;;;;;;40.08;28.75;;;3.70;99.90;;;;;;5038771;28;20084;-73
2023/01/24 00:55:29;;;;;;;40.00;28.17;;;3.80;99.90;;;;;;5042375;28;20037;-74
2023/01/24 00:57:55;;;;;;;39.78;28.25;;;3.70;99.90;;;;;;5044773;28;20060;-73
2023/01/24 01:00:21;;;;;;;42.08;28.30;;;3.70;99.90;;;;;;5048484;28;20753;-73
2023/01/24 01:02:48;;;;;;;36.85;27.38;;;3.70;99.90;;;;;;5044427;28;20044;-73
2023/01/24 01:05:14;;;;;;;39.55;27.33;;;3.70;99.90;;;;;;5048604;28;20063;-73
2023/01/24 01:07:39;;;;;;;39.58;27.25;;;3.70;99.90;;;;;;5045876;28;20488;-73
2023/01/24 01:10:05;;;;;;;37.08;26.33;;;3.80;99.90;;;;;;5040787;28;20041;-74
2023/01/24 01:12:31;;;;;;;41.80;27.45;;;3.70;99.90;;;;;;5045677;28;20041;-74
2023/01/24 01:14:56;;;;;;;41.45;27.50;;;3.80;99.90;;;;;;5045088;28;20065;-74
2023/01/24 01:17:22;;;;;;;41.78;26.85;;;3.80;99.90;;;;;;5047815;28;20041;-73
2023/01/24 01:19:54;;;;;;;38.50;27.52;;;3.70;99.90;;;;;;5052264;28;20049;-73
2023/01/24 01:22:20;;;;;;;36.67;26.50;;;3.70;99.90;;;;;;5031333;28;20216;-73
2023/01/24 01:24:45;;;;;;;37.70;26.83;;;3.70;99.90;;;;;;5048213;28;20036;-73
2023/01/24 01:27:11;;;;;;;40.35;27.35;;;3.80;99.90;;;;;;5048449;28;20423;-74
2023/01/24 01:29:37;;;;;;;40.25;28.00;;;3.80;99.90;;;;;;5044607;28;20396;-74
2023/01/24 01:32:03;;;;;;;35.13;25.77;;;3.80;99.90;;;;;;5045922;28;20045;-74
2023/01/24 01:34:29;;;;;;;32.08;23.27;;;3.70;99.90;;;;;;5045288;28;20391;-74
2023/01/24 01:36:54;;;;;;;31.10;22.50;;;3.80;99.90;;;;;;5048708;28;20044;-73
2023/01/24 01:39:20;;;;;;;28.05;21.17;;;3.70;99.90;;;;;;5050096;28;20059;-73
2023/01/24 01:41:45;;;;;;;27.50;20.92;;;3.70;99.90;;;;;;5050759;28;20029;-74
2023/01/24 01:47:35;;;;;;;28.73;21.17;;;3.70;99.90;;;;;;4973473;28;20062;-73
2023/01/24 01:50:06;;;;;;;29.02;22.27;;;3.80;99.90;;;;;;4987759;28;20072;-74
2023/01/24 01:52:37;;;;;;;28.83;22.10;;;3.70;99.90;;;;;;5014583;28;20057;-74
2023/01/24 01:55:12;;;;;;;30.42;21.02;;;3.70;99.90;;;;;;5049406;28;20041;-74
2023/01/24 01:57:40;;;;;;;26.10;19.98;;;3.70;99.90;;;;;;5046772;28;20049;-73
2023/01/24 02:00:21;;;;;;;26.40;19.85;;;3.70;99.90;;;;;;5046314;28;20480;-74
2023/01/24 02:02:53;;;;;;;26.27;18.92;;;3.70;99.90;;;;;;5051949;28;20049;-74
2023/01/24 02:05:23;;;;;;;25.92;19.65;;;3.70;99.90;;;;;;5052145;28;20124;-74
2023/01/24 02:07:57;;;;;;;25.05;19.30;;;3.70;99.90;;;;;;5052554;28;20119;-74
2023/01/24 02:11:37;;;;;;;24.67;18.40;;;3.70;99.90;;;;;;5047157;28;20033;-74
2023/01/24 02:13:10;;;;;;;29.20;20.25;;;3.70;99.90;;;;;;5051130;28;20049;-74
2023/01/24 02:18:21;;;;;;;27.00;17.73;;;3.70;99.90;;;;;;5041025;28;20053;-74
2023/01/24 02:20:47;;;;;;;23.90;17.58;;;3.70;99.90;;;;;;5049465;28;20049;-74
2023/01/24 02:23:31;;;;;;;23.92;17.77;;;3.70;99.90;;;;;;5050899;28;20069;-72
2023/01/24 02:26:17;;;;;;;23.85;17.60;;;3.70;99.90;;;;;;5043861;28;20075;-73
2023/01/24 02:28:48;;;;;;;24.45;18.75;;;3.70;99.90;;;;;;5050517;28;20492;-73
2023/01/24 02:31:13;;;;;;;22.17;17.90;;;3.70;99.90;;;;;;5039022;28;20485;-73
2023/01/24 02:33:39;;;;;;;24.45;17.58;;;3.70;99.90;;;;;;5034686;28;20041;-73
2023/01/24 02:36:29;;;;;;;24.83;18.50;;;3.70;99.90;;;;;;5037855;28;20076;-73
2023/01/24 02:39:06;;;;;;;22.38;15.68;;;3.70;99.90;;;;;;5046147;28;20045;-73
2023/01/24 02:41:50;;;;;;;20.50;15.80;;;3.70;99.90;;;;;;5044215;28;20139;-73
2023/01/24 02:44:32;;;;;;;19.17;14.30;;;3.80;99.90;;;;;;5039621;28;20051;-73
2023/01/24 02:46:57;;;;;;;18.73;14.65;;;3.70;99.90;;;;;;5036058;28;20041;-73
2023/01/24 02:49:23;;;;;;;19.70;15.13;;;3.70;99.90;;;;;;5039927;28;20090;-73
2023/01/24 02:54:33;;;;;;;18.30;13.50;;;3.70;99.90;;;;;;5049135;28;20052;-73
2023/01/24 02:59:43;;;;;;;18.75;13.05;;;3.70;99.90;;;;;;5048384;28;20053;-73
2023/01/24 03:02:08;;;;;;;16.70;12.65;;;3.70;99.90;;;;;;5049487;28;20098;-73
2023/01/24 03:04:34;;;;;;;16.63;13.10;;;3.60;99.90;;;;;;5045804;28;20095;-73
2023/01/24 03:07:00;;;;;;;17.45;12.80;;;3.60;99.90;;;;;;5048867;28;20495;-73
2023/01/24 03:09:35;;;;;;;18.02;13.40;;;3.60;99.90;;;;;;5046490;28;20037;-72
2023/01/24 03:36:41;;;;;;;14.07;11.35;;;3.60;99.90;;;;;;5030815;28;20049;-73
2023/01/24 03:41:53;;;;;;;15.65;11.48;;;3.60;99.90;;;;;;5047727;28;20128;-73
2023/01/24 03:44:19;;;;;;;16.13;12.05;;;3.50;99.90;;;;;;5046344;28;20052;-73
2023/01/24 03:46:44;;;;;;;15.93;11.48;;;3.50;99.90;;;;;;5043725;28;20042;-73
2023/01/24 03:49:10;;;;;;;15.20;11.68;;;3.50;99.90;;;;;;5041387;28;20048;-73
2023/01/24 03:54:20;;;;;;;17.30;12.25;;;3.50;99.90;;;;;;5044555;28;20048;-73
2023/01/24 03:56:45;;;;;;;16.02;11.57;;;3.50;99.90;;;;;;5032145;28;20106;-73
2023/01/24 03:59:11;;;;;;;15.57;11.07;;;3.50;99.90;;;;;;5047996;28;20041;-73
2023/01/24 04:01:36;;;;;;;16.25;11.98;;;3.60;99.90;;;;;;5039970;28;20397;-73
2023/01/24 04:04:02;;;;;;;16.15;12.25;;;3.60;99.90;;;;;;5033395;28;20048;-73
2023/01/24 04:06:28;;;;;;;15.25;11.45;;;3.60;99.90;;;;;;5037967;28;20049;-73
2023/01/24 04:08:54;;;;;;;14.43;11.25;;;3.60;99.90;;;;;;5044945;28;20053;-73
2023/01/24 04:11:19;;;;;;;14.80;10.73;;;3.60;99.90;;;;;;5046623;28;20431;-73
2023/01/24 04:13:45;;;;;;;16.83;12.00;;;3.60;99.90;;;;;;5049350;28;20048;-73
2023/01/24 04:16:12;;;;;;;15.60;11.68;;;3.60;99.90;;;;;;5045137;28;20079;-73
2023/01/24 04:18:37;;;;;;;16.05;11.98;;;3.60;99.90;;;;;;5048036;28;20527;-73
2023/01/24 04:21:04;;;;;;;15.77;11.48;;;3.60;99.90;;;;;;5044998;28;20119;-73
2023/01/24 04:23:30;;;;;;;14.65;10.95;;;3.60;99.90;;;;;;5041538;28;20102;-72
2023/01/24 04:25:59;;;;;;;14.65;11.38;;;3.60;99.90;;;;;;5042842;28;20045;-73
2023/01/24 04:28:25;;;;;;;15.75;11.77;;;3.60;99.90;;;;;;5048608;28;20055;-72
2023/01/24 04:31:01;;;;;;;14.85;11.82;;;3.60;99.90;;;;;;5048715;28;20044;-73
2023/01/24 04:33:27;;;;;;;16.98;11.82;;;3.60;99.90;;;;;;5046804;28;20061;-73
2023/01/24 04:35:59;;;;;;;15.55;12.07;;;3.50;99.90;;;;;;5049421;28;20094;-72
2023/01/24 04:38:25;;;;;;;15.60;11.85;;;3.60;99.90;;;;;;5044988;28;20404;-73
2023/01/24 04:41:02;;;;;;;15.60;12.00;;;3.60;99.90;;;;;;5048760;28;20045;-73
2023/01/24 04:43:28;;;;;;;16.35;12.40;;;3.60;99.90;;;;;;5049474;28;20135;-72
2023/01/24 04:45:57;;;;;;;16.73;12.68;;;3.60;99.90;;;;;;5035651;28;20091;-73
2023/01/24 04:48:23;;;;;;;16.38;12.77;;;3.50;99.90;;;;;;5045351;28;21604;-72
2023/01/24 04:50:49;;;;;;;17.52;13.27;;;3.50;99.90;;;;;;5048670;28;20041;-72
2023/01/24 04:53:15;;;;;;;15.57;12.10;;;3.50;99.90;;;;;;5040929;28;20182;-72
2023/01/24 04:55:41;;;;;;;15.38;11.18;;;3.50;99.90;;;;;;5048213;28;20508;-73
2023/01/24 04:58:06;;;;;;;15.73;11.75;;;3.50;99.90;;;;;;5032017;28;20085;-71
2023/01/24 05:00:32;;;;;;;17.05;12.73;;;3.50;99.90;;;;;;5042966;28;20060;-72
2023/01/24 05:02:57;;;;;;;15.30;12.30;;;3.50;99.90;;;;;;5047180;28;20404;-72
2023/01/24 05:05:23;;;;;;;15.50;12.07;;;3.50;99.90;;;;;;5045205;28;20052;-73
2023/01/24 05:07:49;;;;;;;16.90;11.95;;;3.50;99.90;;;;;;5048530;28;20543;-73
2023/01/24 05:10:15;;;;;;;16.27;11.98;;;3.50;99.90;;;;;;5046782;28;20416;-73
2023/01/24 05:12:40;;;;;;;14.60;11.98;;;3.50;99.90;;;;;;5050803;28;20048;-73
2023/01/24 05:15:06;;;;;;;16.67;12.15;;;3.50;99.90;;;;;;5052178;28;20451;-73
2023/01/24 05:17:32;;;;;;;16.52;11.98;;;3.50;99.90;;;;;;5049938;28;20158;-72
2023/01/24 05:19:58;;;;;;;15.98;11.80;;;3.50;99.90;;;;;;5052258;28;20055;-72
2023/01/24 05:22:23;;;;;;;14.57;12.10;;;3.50;99.90;;;;;;5041714;28;20033;-73
2023/01/24 05:24:49;;;;;;;14.50;12.00;;;3.50;99.90;;;;;;5046690;28;20431;-72
2023/01/24 05:27:14;;;;;;;15.98;12.45;;;3.40;99.90;;;;;;5042686;28;20396;-73
2023/01/24 05:29:40;;;;;;;16.90;12.75;;;3.50;99.90;;;;;;5050007;28;20488;-73
2023/01/24 05:32:06;;;;;;;17.33;12.52;;;3.40;99.90;;;;;;5051000;28;20095;-73
2023/01/24 05:34:31;;;;;;;16.70;12.73;;;3.40;99.90;;;;;;5051262;28;20036;-73
2023/01/24 05:36:57;;;;;;;16.98;12.52;;;3.40;99.90;;;;;;5042306;28;20632;-72
2023/01/24 05:39:22;;;;;;;18.13;13.25;;;3.50;99.90;;;;;;5050784;28;20045;-73
2023/01/24 05:41:48;;;;;;;16.77;12.90;;;3.40;99.90;;;;;;5046304;28;20041;-73
2023/01/24 05:44:14;;;;;;;16.48;12.88;;;3.40;99.90;;;;;;5050440;28;20158;-72
2023/01/24 05:46:39;;;;;;;14.73;11.57;;;3.40;99.90;;;;;;5050889;28;20080;-72
2023/01/24 05:49:05;;;;;;;15.63;11.45;;;3.50;99.90;;;;;;5039590;28;20033;-73
2023/01/24 05:51:31;;;;;;;18.13;13.18;;;3.50;99.90;;;;;;5051201;28;20029;-72
2023/01/24 05:53:56;;;;;;;16.10;12.25;;;3.50;99.90;;;;;;5047493;28;20446;-73
2023/01/24 05:56:22;;;;;;;15.93;11.77;;;3.50;99.90;;;;;;5049653;28;20044;-73
2023/01/24 05:58:48;;;;;;;18.38;13.15;;;3.50;99.90;;;;;;5050886;28;20407;-73
2023/01/24 06:01:19;;;;;;;17.48;12.73;;;3.40;99.90;;;;;;5052235;28;20388;-73
2023/01/24 06:03:47;;;;;;;16.33;12.35;;;3.50;99.90;;;;;;5048447;28;20048;-73
2023/01/24 06:06:15;;;;;;;18.48;12.30;;;3.50;99.90;;;;;;5052040;28;20098;-73
2023/01/24 06:08:42;;;;;;;18.60;12.75;;;3.50;99.90;;;;;;5044633;28;20099;-73
2023/01/24 06:11:13;;;;;;;17.42;12.63;;;3.40;99.90;;;;;;5037688;28;20041;-74
2023/01/24 06:13:39;;;;;;;16.52;12.88;;;3.50;99.90;;;;;;5033485;28;20134;-74
2023/01/24 06:16:09;;;;;;;17.30;12.52;;;3.50;99.90;;;;;;5039797;28;20512;-74
2023/01/24 06:18:34;;;;;;;18.05;12.88;;;3.50;99.90;;;;;;5048634;28;20041;-74
2023/01/24 06:21:22;;;;;;;17.13;13.23;;;3.50;99.90;;;;;;5042388;28;20045;-74
2023/01/24 06:23:48;;;;;;;16.50;12.63;;;3.50;99.90;;;;;;5048782;28;20044;-73
2023/01/24 06:26:14;;;;;;;16.33;12.40;;;3.50;99.90;;;;;;5044655;28;20373;-74
2023/01/24 06:28:40;;;;;;;14.23;12.25;;;3.50;99.90;;;;;;5033172;28;21480;-74
2023/01/24 06:31:33;;;;;;;17.70;12.70;;;3.40;99.90;;;;;;5040919;28;20099;-74
2023/01/24 06:34:21;;;;;;;17.35;12.70;;;3.40;99.90;;;;;;5047265;28;20037;-72
2023/01/24 06:37:11;;;;;;;17.55;13.55;;;3.40;99.90;;;;;;5049005;28;20060;-73
2023/01/24 06:39:39;;;;;;;18.05;14.27;;;3.40;99.90;;;;;;5043537;28;20089;-73
2023/01/24 06:42:06;;;;;;;18.75;14.68;;;3.40;99.90;;;;;;5045526;28;20105;-73
2023/01/24 06:44:32;;;;;;;20.80;14.88;;;3.40;99.90;;;;;;5048780;28;20102;-72
2023/01/24 06:47:00;;;;;;;16.70;13.40;;;3.40;99.90;;;;;;5041044;28;20052;-73
2023/01/24 06:49:26;;;;;;;17.83;13.48;;;3.40;99.90;;;;;;5049631;28;20163;-72
2023/01/24 06:51:52;;;;;;;17.17;13.88;;;3.40;99.90;;;;;;5036344;28;20057;-73
2023/01/24 06:54:18;;;;;;;17.67;14.00;;;3.40;99.90;;;;;;5046720;28;20080;-73
2023/01/24 06:56:43;;;;;;;16.90;12.77;;;3.40;99.90;;;;;;5043236;28;20076;-71
2023/01/24 06:59:09;;;;;;;17.02;13.63;;;3.40;99.90;;;;;;5039976;28;20049;-73
2023/01/24 07:01:35;;;;;;;17.17;13.45;;;3.40;99.90;;;;;;5043535;28;20055;-72
2023/01/24 07:04:01;;;;;;;16.65;12.98;;;3.40;99.90;;;;;;5046571;28;20053;-72
2023/01/24 07:06:27;;;;;;;15.63;12.88;;;3.40;99.90;;;;;;5048092;28;20068;-72
2023/01/24 07:08:53;;;;;;;17.40;13.45;;;3.40;99.90;;;;;;5051408;28;20131;-72
2023/01/24 07:11:19;;;;;;;17.42;14.40;;;3.30;99.90;;;;;;5046433;28;20040;-72
2023/01/24 07:13:45;;;;;;;17.05;13.50;;;3.30;99.90;;;;;;5038323;28;20049;-72
2023/01/24 07:16:10;;;;;;;15.95;13.05;;;3.30;99.90;;;;;;5048539;28;20041;-72
2023/01/24 07:18:37;;;;;;;17.15;13.93;;;3.30;99.90;;;;;;5044376;28;20048;-71
2023/01/24 07:21:07;;;;;;;18.90;13.85;;;3.30;99.90;;;;;;5049502;28;20037;-73
2023/01/24 07:23:34;;;;;;;17.77;13.32;;;3.30;99.90;;;;;;5046590;28;20186;-72
2023/01/24 07:26:00;;;;;;;17.42;13.73;;;3.30;99.90;;;;;;5044011;28;20049;-72
2023/01/24 07:28:26;;;;;;;17.63;13.93;;;3.30;99.90;;;;;;5046562;28;20051;-73
2023/01/24 07:30:53;;;;;;;16.95;13.43;;;3.30;99.90;;;;;;5050378;28;20037;-72
2023/01/24 07:33:19;;;;;;;16.35;13.75;;;3.30;99.90;;;;;;5041270;28;20555;-72
2023/01/24 07:35:45;;;;;;;19.67;13.75;;;3.30;99.90;;;;;;5043987;28;20125;-73
2023/01/24 07:38:14;;;;;;;17.58;14.60;;;3.30;99.90;;;;;;5044192;28;20135;-72
2023/01/24 07:40:41;;;;;;;18.33;14.70;;;3.30;99.90;;;;;;5046594;28;20033;-72
2023/01/24 07:43:07;;;;;;;17.23;13.63;;;3.30;99.90;;;;;;5044369;28;20048;-71
2023/01/24 07:45:35;;;;;;;19.10;14.68;;;3.30;99.90;;;;;;5041571;28;20087;-72
2023/01/24 07:48:01;;;;;;;17.42;14.23;;;3.30;99.90;;;;;;5040695;28;20106;-72
2023/01/24 07:50:30;;;;;;;20.40;15.10;;;3.30;99.90;;;;;;5032863;28;20053;-71
2023/01/24 07:52:56;;;;;;;17.40;14.07;;;3.30;99.90;;;;;;5050549;28;20044;-71
2023/01/24 07:55:22;;;;;;;17.67;13.67;;;3.30;99.90;;;;;;5048147;28;20041;-72
2023/01/24 07:57:49;;;;;;;17.17;14.65;;;3.30;99.90;;;;;;5049530;28;20165;-72
2023/01/24 08:00:15;;;;;;;20.13;15.45;;;3.40;99.90;;;;;;5048804;28;20037;-72
2023/01/24 08:02:42;;;;;;;18.35;15.00;;;3.30;99.90;;;;;;5047101;28;20045;-72
2023/01/24 08:05:09;;;;;;;23.02;16.90;;;3.30;99.90;;;;;;5044064;28;20049;-72
2023/01/24 08:07:36;;;;;;;18.07;15.03;;;3.20;99.90;;;;;;5046918;28;20131;-72
2023/01/24 08:10:02;;;;;;;17.70;15.32;;;3.20;99.90;;;;;;5046937;28;20051;-71
2023/01/24 08:12:27;;;;;;;20.92;16.80;;;3.20;99.90;;;;;;5044184;28;20053;-72
2023/01/24 08:14:53;;;;;;;21.42;17.23;;;3.20;99.90;;;;;;5046245;28;20488;-73
2023/01/24 08:17:19;;;;;;;20.08;15.93;;;3.20;99.90;;;;;;5043005;28;20052;-74
2023/01/24 08:19:44;;;;;;;19.45;16.00;;;3.20;99.90;;;;;;5044561;28;20053;-75
2023/01/24 08:22:10;;;;;;;20.13;17.77;;;3.20;99.90;;;;;;5043287;28;20037;-73
2023/01/24 08:24:36;;;;;;;19.30;16.42;;;3.20;99.90;;;;;;5045952;28;20413;-73
2023/01/24 08:27:02;;;;;;;19.48;15.77;;;3.20;99.90;;;;;;5047293;28;20041;-77
2023/01/24 08:29:29;;;;;;;19.60;16.05;;;3.20;99.90;;;;;;5047418;28;20049;-74
2023/01/24 08:31:55;;;;;;;19.63;16.08;;;3.10;99.90;;;;;;5035629;28;20159;-75
2023/01/24 08:34:21;;;;;;;18.77;15.85;;;3.10;99.90;;;;;;5048554;28;20476;-74
2023/01/24 08:36:47;;;;;;;19.00;15.50;;;3.10;99.90;;;;;;5051092;28;20059;-74
2023/01/24 08:39:12;;;;;;;17.95;15.52;;;3.10;99.90;;;;;;5035959;28;20049;-74
2023/01/24 08:41:38;;;;;;;17.50;15.07;;;3.10;99.90;;;;;;5041901;28;20049;-74
2023/01/24 08:44:04;;;;;;;18.25;15.32;;;3.20;99.90;;;;;;5041662;28;20137;-75
2023/01/24 08:46:31;;;;;;;17.75;15.23;;;3.20;99.90;;;;;;5048231;28;20491;-74
2023/01/24 08:48:57;;;;;;;16.40;14.63;;;3.20;99.90;;;;;;5050028;28;20048;-73
2023/01/24 08:51:24;;;;;;;19.88;15.32;;;3.20;99.90;;;;;;5043723;28;20037;-75
2023/01/24 08:53:49;;;;;;;18.83;14.82;;;3.10;99.90;;;;;;5045611;28;20571;-73
2023/01/24 08:56:15;;;;;;;18.55;15.00;;;3.10;99.90;;;;;;5046330;28;20180;-72
2023/01/24 08:58:41;;;;;;;18.73;15.65;;;3.10;99.90;;;;;;5033237;28;20082;-76
2023/01/24 09:01:07;;;;;;;15.98;14.00;;;3.10;99.90;;;;;;5029331;28;20046;-72
2023/01/24 09:03:33;;;;;;;21.55;15.30;;;3.10;99.90;;;;;;5048414;28;20037;-70
2023/01/24 09:05:59;;;;;;;17.90;14.25;;;3.10;99.90;;;;;;5049927;28;20392;-75
2023/01/24 09:08:25;;;;;;;17.73;14.90;;;3.10;99.90;;;;;;5048175;28;20143;-74
2023/01/24 09:10:51;;;;;;;17.77;14.50;;;3.10;99.90;;;;;;5050524;28;20033;-75
2023/01/24 09:13:17;;;;;;;17.17;14.68;;;3.10;99.90;;;;;;5047686;28;20090;-74
2023/01/24 09:15:43;;;;;;;17.70;14.45;;;3.10;99.90;;;;;;5048239;28;20049;-75
2023/01/24 09:18:09;;;;;;;18.08;14.70;;;3.20;99.90;;;;;;5043626;28;20068;-74
2023/01/24 09:20:35;;;;;;;16.48;13.40;;;3.20;99.90;;;;;;5048378;28;20089;-76
2023/01/24 09:23:08;;;;;;;16.95;13.98;;;3.20;99.90;;;;;;5033068;28;20049;-75
2023/01/24 09:25:34;;;;;;;16.98;14.40;;;3.10;99.90;;;;;;5029516;28;20531;-77
2023/01/24 09:27:59;;;;;;;18.27;14.68;;;3.10;99.90;;;;;;5036954;28;20044;-75
2023/01/24 09:30:25;;;;;;;16.30;13.98;;;3.10;99.90;;;;;;5049268;28;20041;-77
2023/01/24 09:32:51;;;;;;;16.10;13.77;;;3.10;99.90;;;;;;5050706;28;20041;-76
2023/01/24 09:35:17;;;;;;;17.10;13.98;;;3.10;99.90;;;;;;5048708;28;20107;-76
2023/01/24 09:37:44;;;;;;;17.48;13.80;;;3.10;99.90;;;;;;5048820;28;20081;-73
2023/01/24 09:40:18;;;;;;;;;;;3.10;99.90;;;;;;5051790;28;20513;-71
2023/01/24 09:42:59;;;;;;;14.85;12.55;;;3.10;99.90;;;;;;5046406;28;19921;-71
2023/01/24 09:45:35;;;;;;;15.55;12.95;;;3.10;99.90;;;;;;5028572;28;20129;-71
2023/01/24 09:48:04;;;;;;;15.20;12.82;;;3.10;99.90;;;;;;5029978;28;20050;-71
2023/01/24 09:50:51;;;;;;;20.00;14.45;;;3.10;99.90;;;;;;5028691;28;20042;-71
2023/01/24 09:53:29;;;;;;;18.42;13.50;;;3.10;99.90;;;;;;5028912;28;20099;-71
2023/01/24 09:55:56;;;;;;;18.38;14.13;;;3.10;99.90;;;;;;5028798;28;20057;-71
2023/01/24 09:58:28;;;;;;;17.55;13.57;;;3.10;99.90;;;;;;5045667;28;20098;-71
2023/01/24 10:00:54;;;;;;;17.15;13.45;;;3.10;99.90;;;;;;5054232;28;20047;-71
2023/01/24 10:03:24;;;;;;;15.88;13.38;;;3.10;99.90;;;;;;5052582;28;20100;-72
2023/01/24 10:05:56;;;;;;;17.02;13.70;;;3.10;99.90;;;;;;5053778;28;20120;-71
2023/01/24 10:08:42;;;;;;;17.17;13.63;;;3.10;99.90;;;;;;5053390;28;20045;-72
2023/01/24 10:11:50;;;;;;;16.73;13.25;;;3.10;99.90;;;;;;5053263;28;20084;-71
2023/01/24 10:14:52;;;;;;;15.82;13.13;;;3.10;99.90;;;;;;5014830;28;20128;-82
2023/01/24 10:17:25;;;;;;;16.40;13.23;;;3.10;99.90;;;;;;5047069;28;20139;-78
2023/01/24 10:20:25;;;;;;;15.95;12.57;;;3.20;99.90;;;;;;5052577;28;20049;-78
2023/01/24 10:23:04;;;;;;;22.02;16.65;;;3.20;99.90;;;;;;5051257;28;20052;-81
2023/01/24 10:25:50;;;;;;;16.17;14.07;;;3.10;99.90;;;;;;5050014;28;20132;-79
2023/01/24 10:28:23;;;;;;;24.70;19.33;;;3.20;99.90;;;;;;5051867;28;20048;-78
2023/01/24 10:31:14;;;;;;;25.17;19.83;;;3.20;99.90;;;;;;5035463;28;20041;-76
2023/01/24 10:33:48;;;;;;;17.10;14.13;;;3.20;99.90;;;;;;5032833;28;20060;-77
2023/01/24 10:36:28;;;;;;;16.80;13.32;;;3.20;99.90;;;;;;5039651;28;20144;-79
2023/01/24 10:38:53;;;;;;;15.82;13.38;;;3.20;99.90;;;;;;5041078;28;20546;-76
2023/01/24 10:41:22;;;;;;;16.38;13.75;;;3.20;99.90;;;;;;5044243;28;20029;-74
2023/01/24 10:44:18;;;;;;;16.58;14.02;;;3.20;99.90;;;;;;5046395;28;20048;-78
2023/01/24 10:47:18;;;;;;;15.00;12.57;;;3.20;99.90;;;;;;5041942;28;20110;-73
2023/01/24 10:49:59;;;;;;;15.77;13.50;;;3.20;99.90;;;;;;5051471;28;20064;-73
2023/01/24 10:52:26;;;;;;;15.45;12.63;;;3.20;99.90;;;;;;5032126;28;20124;-73
2023/01/24 10:54:57;;;;;;;16.50;13.15;;;3.20;99.90;;;;;;5049890;28;20045;-74
2023/01/24 10:57:32;;;;;;;17.48;12.63;;;3.20;99.90;;;;;;5049592;28;20076;-74
2023/01/24 11:00:06;;;;;;;15.73;13.23;;;3.20;99.90;;;;;;5049739;28;20445;-78
2023/01/24 11:02:35;;;;;;;16.05;12.82;;;3.30;99.90;;;;;;5038692;28;20529;-74
2023/01/24 11:05:06;;;;;;;15.35;13.50;;;3.40;99.90;;;;;;5050480;28;20078;-78
2023/01/24 11:07:35;;;;;;;15.98;12.85;;;3.40;99.90;;;;;;5051757;28;20037;-78
2023/01/24 11:10:17;;;;;;;15.20;12.98;;;3.30;99.90;;;;;;5049959;28;20041;-75
2023/01/24 11:12:54;;;;;;;14.27;12.45;;;3.30;99.90;;;;;;5048792;28;20059;-73
2023/01/24 11:15:26;;;;;;;15.38;12.40;;;3.40;99.90;;;;;;5049627;28;20049;-71
2023/01/24 11:17:55;;;;;;;13.85;12.25;;;3.40;99.90;;;;;;5048637;28;20088;-74
2023/01/24 11:20:24;;;;;;;15.00;12.20;;;3.30;99.90;;;;;;5047380;28;20498;-73
2023/01/24 11:22:50;;;;;;;14.95;12.27;;;3.30;99.90;;;;;;5047940;28;20614;-73
2023/01/24 11:25:18;;;;;;;14.40;12.50;;;3.30;99.90;;;;;;5050808;28;20041;-72
2023/01/24 11:27:49;;;;;;;15.20;13.07;;;3.30;99.90;;;;;;5047224;28;20044;-72
2023/01/24 11:30:20;;;;;;;15.82;12.70;;;3.30;99.90;;;;;;5046578;28;20049;-73
2023/01/24 11:33:21;;;;;;;15.15;12.40;;;3.40;99.90;;;;;;5047919;28;20037;-72
2023/01/24 11:35:54;;;;;;;14.80;12.15;;;3.40;99.90;;;;;;5039391;28;20488;-76
2023/01/24 11:38:34;;;;;;;15.85;12.93;;;3.40;99.90;;;;;;5041488;28;20045;-76
2023/01/24 11:41:15;;;;;;;13.82;12.32;;;3.40;99.90;;;;;;5048464;28;20041;-75
2023/01/24 11:44:16;;;;;;;17.45;14.85;;;3.40;99.90;;;;;;5042313;28;20053;-77
2023/01/24 11:46:59;;;;;;;18.75;16.15;;;3.50;99.90;;;;;;5040236;28;20052;-74
2023/01/24 11:49:27;;;;;;;17.23;13.98;;;3.50;99.90;;;;;;5042975;28;20045;-73
2023/01/24 11:51:56;;;;;;;15.48;13.57;;;3.50;99.90;;;;;;5036150;28;20049;-73
2023/01/24 11:54:27;;;;;;;20.35;16.42;;;3.50;99.90;;;;;;5038571;28;20133;-76
2023/01/24 11:57:10;;;;;;;17.00;13.85;;;3.50;99.90;;;;;;5049012;28;20044;-75
2023/01/24 11:59:45;;;;;;;16.08;13.15;;;3.50;99.90;;;;;;5038309;28;20043;-78
2023/01/24 12:02:23;;;;;;;16.23;13.13;;;3.50;99.90;;;;;;5045144;28;20133;-78
2023/01/24 12:05:09;;;;;;;15.35;13.70;;;3.50;99.90;;;;;;5044001;28;20127;-75
2023/01/24 12:07:56;;;;;;;16.92;13.35;;;3.50;99.90;;;;;;5040191;28;20045;-78
2023/01/24 12:10:28;;;;;;;15.48;13.48;;;3.50;99.90;;;;;;5039857;28;20051;-77
2023/01/24 12:13:16;;;;;;;17.73;13.48;;;3.40;99.90;;;;;;5048533;28;20075;-77
2023/01/24 12:16:19;;;;;;;18.23;14.15;;;3.40;99.90;;;;;;5041238;28;20140;-77
2023/01/24 12:19:05;;;;;;;16.15;13.38;;;3.50;99.90;;;;;;5035302;28;20049;-75
2023/01/24 12:21:30;;;;;;;14.82;12.60;;;3.50;99.90;;;;;;5045597;28;20071;-74
2023/01/24 12:24:07;;;;;;;16.15;13.02;;;3.50;99.90;;;;;;5038705;28;20044;-77
2023/01/24 12:26:57;;;;;;;14.82;12.23;;;3.50;99.90;;;;;;5033654;28;20076;-75
2023/01/24 12:29:39;;;;;;;16.27;13.60;;;3.50;99.90;;;;;;5047881;28;20032;-74
2023/01/24 12:32:38;;;;;;;14.50;12.70;;;3.50;99.90;;;;;;5049483;28;20040;-75
2023/01/24 12:35:28;;;;;;;17.85;14.50;;;3.50;99.90;;;;;;5043663;28;20076;-74
2023/01/24 12:38:05;;;;;;;16.15;13.60;;;3.50;99.90;;;;;;5046902;28;20056;-73
2023/01/24 12:41:06;;;;;;;16.63;13.30;;;3.50;99.90;;;;;;5042001;28;20045;-71
2023/01/24 12:43:54;;;;;;;16.55;13.60;;;3.50;99.90;;;;;;5043251;28;20191;-75
2023/01/24 12:46:38;;;;;;;15.23;12.93;;;3.50;99.90;;;;;;5036103;28;20049;-77
2023/01/24 12:49:30;;;;;;;16.70;13.70;;;3.50;99.90;;;;;;5046530;28;20049;-76
2023/01/24 12:52:06;;;;;;;15.80;13.43;;;3.50;99.90;;;;;;5043512;28;20404;-75
2023/01/24 12:54:42;;;;;;;17.17;13.57;;;3.50;99.90;;;;;;5046616;28;20053;-75
2023/01/24 12:57:20;;;;;;;16.77;13.38;;;3.50;99.90;;;;;;5048924;28;20049;-78
2023/01/24 12:59:45;;;;;;;16.23;13.60;;;3.40;99.90;;;;;;5047794;28;20538;-73
2023/01/24 13:02:43;;;;;;;15.85;13.48;;;3.40;99.90;;;;;;5044586;28;20076;-74
2023/01/24 13:05:33;;;;;;;16.33;13.98;;;3.50;99.90;;;;;;5037410;28;20480;-78
2023/01/24 13:08:14;;;;;;;17.30;13.95;;;3.50;99.90;;;;;;5042382;28;20094;-78
2023/01/24 13:10:48;;;;;;;15.73;14.00;;;3.50;99.90;;;;;;5045381;28;20045;-76
2023/01/24 13:13:20;;;;;;;16.00;13.40;;;3.50;99.90;;;;;;5042347;28;20041;-78
2023/01/24 13:15:54;;;;;;;15.77;13.90;;;3.50;99.90;;;;;;5039658;28;20090;-76
2023/01/24 13:18:40;;;;;;;16.35;13.88;;;3.50;99.90;;;;;;5046312;28;20055;-77
2023/01/24 13:21:10;;;;;;;17.80;13.85;;;3.50;99.90;;;;;;5045507;28;20049;-71
2023/01/24 13:24:11;;;;;;;16.50;13.68;;;3.50;99.90;;;;;;5048770;28;20080;-71
2023/01/24 13:26:40;;;;;;;15.77;14.07;;;3.50;99.90;;;;;;5045041;28;20052;-72
2023/01/24 13:29:26;;;;;;;16.13;13.98;;;3.50;99.90;;;;;;5047116;28;20039;-71
2023/01/24 13:32:12;;;;;;;16.92;13.93;;;3.50;99.90;;;;;;5050732;28;20049;-78
2023/01/24 13:34:58;;;;;;;15.50;13.38;;;3.50;99.90;;;;;;5052098;28;20056;-78
2023/01/24 13:37:32;;;;;;;17.08;14.40;;;3.50;99.90;;;;;;5040517;28;20464;-73
2023/01/24 13:40:04;;;;;;;18.33;14.68;;;3.50;99.90;;;;;;5051169;28;20053;-73